createdAt,value
2022-10-18T00:00:06.110Z,65.34
2022-10-18T00:02:32.564Z,65.73
2022-10-18T00:04:58.927Z,65.41
2022-10-18T00:07:25.230Z,65.35
2022-10-18T00:09:51.542Z,65.51
2022-10-18T00:12:18.434Z,65.33
2022-10-18T00:14:44.770Z,65.58
2022-10-18T00:17:11.085Z,65.43
2022-10-18T00:19:37.388Z,65.45
2022-10-18T00:22:03.736Z,65.54
2022-10-18T00:24:30.081Z,65.38
2022-10-18T00:26:56.459Z,65.29
2022-10-18T00:29:22.827Z,65.24
2022-10-18T00:31:49.177Z,65.56
2022-10-18T00:34:16.632Z,65.56
2022-10-18T00:36:44.122Z,65.15
2022-10-18T00:39:17.882Z,65.35
2022-10-18T00:41:44.601Z,65.16
2022-10-18T00:44:10.848Z,65.19
2022-10-18T00:46:42.455Z,65.06
2022-10-18T00:49:25.132Z,65.05
2022-10-18T00:52:05.586Z,65.19
2022-10-18T00:54:34.715Z,65.48
2022-10-18T00:57:01.738Z,65.23
2022-10-18T00:59:29.185Z,65.16
2022-10-18T01:01:55.531Z,65.00
2022-10-18T01:04:22.588Z,65.22
2022-10-18T01:07:10.360Z,64.97
2022-10-18T01:09:54.921Z,65.46
2022-10-18T01:12:45.381Z,64.94
2022-10-18T01:15:17.694Z,65.19
2022-10-18T01:18:01.603Z,65.19
2022-10-18T01:21:03.156Z,64.85
2022-10-18T01:24:03.147Z,65.18
2022-10-18T01:27:06.644Z,65.04
2022-10-18T01:30:20.176Z,64.82
2022-10-18T01:32:51.132Z,65.03
2022-10-18T01:35:23.768Z,65.12
2022-10-18T01:37:52.454Z,65.02
2022-10-18T01:40:22.096Z,64.81
2022-10-18T01:42:49.560Z,64.92
2022-10-18T01:45:16.964Z,64.93
2022-10-18T01:47:45.433Z,64.67
2022-10-18T01:50:12.591Z,64.94
2022-10-18T01:52:50.000Z,64.73
2022-10-18T01:55:16.542Z,64.93
2022-10-18T01:57:59.260Z,64.78
2022-10-18T02:00:39.015Z,64.78
2022-10-18T02:03:22.797Z,64.82
2022-10-18T02:05:58.817Z,64.63
2022-10-18T02:08:46.303Z,64.92
2022-10-18T02:11:15.378Z,64.62
2022-10-18T02:14:03.328Z,64.80
2022-10-18T02:16:35.897Z,64.50
2022-10-18T02:19:08.897Z,64.69
2022-10-18T02:21:37.925Z,64.82
2022-10-18T02:24:05.873Z,64.39
2022-10-18T02:26:32.388Z,64.73
2022-10-18T02:28:58.749Z,64.77
2022-10-18T02:31:43.204Z,64.63
2022-10-18T02:34:27.666Z,64.52
2022-10-18T02:36:57.880Z,64.34
2022-10-18T02:39:31.934Z,64.29
2022-10-18T02:41:59.408Z,64.49
2022-10-18T02:44:26.074Z,64.44
2022-10-18T02:46:53.109Z,64.20
2022-10-18T02:49:19.462Z,64.37
2022-10-18T02:51:45.773Z,64.33
2022-10-18T02:54:12.112Z,64.25
2022-10-18T02:56:38.412Z,64.14
2022-10-18T02:59:07.236Z,64.25
2022-10-18T03:01:35.965Z,64.19
2022-10-18T03:04:03.852Z,64.17
2022-10-18T03:06:30.571Z,64.35
2022-10-18T03:08:56.895Z,64.33
2022-10-18T03:11:23.330Z,64.08
2022-10-18T03:13:52.601Z,64.07
2022-10-18T03:16:19.169Z,63.94
2022-10-18T03:18:45.704Z,64.16
2022-10-18T03:21:12.210Z,63.90
2022-10-18T03:23:38.572Z,64.13
2022-10-18T03:26:05.017Z,64.03
2022-10-18T03:28:31.415Z,63.73
2022-10-18T03:31:02.317Z,64.10
2022-10-18T03:33:30.015Z,64.00
2022-10-18T03:35:56.435Z,63.71
2022-10-18T03:38:22.967Z,63.65
2022-10-18T03:40:49.288Z,63.84
2022-10-18T03:43:15.765Z,63.92
2022-10-18T03:45:42.151Z,63.65
2022-10-18T03:48:08.450Z,63.70
2022-10-18T03:50:34.841Z,63.42
2022-10-18T03:53:01.170Z,63.56
2022-10-18T03:55:27.472Z,63.56
2022-10-18T03:57:53.934Z,63.57
2022-10-18T04:00:20.615Z,63.61
2022-10-18T04:02:49.520Z,63.71
2022-10-18T04:05:17.347Z,63.43
2022-10-18T04:07:43.653Z,63.32
2022-10-18T04:10:10.009Z,63.59
2022-10-18T04:12:36.359Z,63.61
2022-10-18T04:15:03.149Z,63.51
2022-10-18T04:17:29.646Z,63.66
2022-10-18T04:19:56.163Z,63.39
2022-10-18T04:22:22.619Z,63.48
2022-10-18T04:24:48.978Z,63.63
2022-10-18T04:27:15.355Z,63.38
2022-10-18T04:29:41.695Z,63.36
2022-10-18T04:32:07.995Z,62.97
2022-10-18T04:34:34.321Z,63.17
2022-10-18T04:37:00.697Z,63.16
2022-10-18T04:39:27.067Z,63.07
2022-10-18T04:41:53.387Z,63.33
2022-10-18T04:44:19.694Z,63.31
2022-10-18T04:46:46.024Z,63.19
2022-10-18T04:49:12.336Z,63.34
2022-10-18T04:51:38.658Z,62.99
2022-10-18T04:54:05.100Z,62.82
2022-10-18T04:56:32.043Z,62.74
2022-10-18T04:58:59.524Z,63.01
2022-10-18T05:01:25.979Z,62.77
2022-10-18T05:03:54.246Z,62.67
2022-10-18T05:06:21.706Z,62.83
2022-10-18T05:08:49.247Z,62.92
2022-10-18T05:11:15.604Z,62.64
2022-10-18T05:13:41.916Z,62.93
2022-10-18T05:16:08.231Z,62.50
2022-10-18T05:18:34.602Z,62.63
2022-10-18T05:21:00.906Z,62.59
2022-10-18T05:23:27.243Z,62.83
2022-10-18T05:25:54.113Z,62.83
2022-10-18T05:28:38.712Z,62.67
2022-10-18T05:31:07.788Z,62.59
2022-10-18T05:33:34.886Z,62.66
2022-10-18T05:36:02.042Z,62.55
2022-10-18T05:38:30.828Z,62.68
2022-10-18T05:40:57.900Z,62.58
2022-10-18T05:43:28.480Z,62.36
2022-10-18T05:45:54.918Z,62.44
2022-10-18T05:48:21.358Z,62.48
2022-10-18T05:50:47.713Z,62.34
2022-10-18T05:53:35.160Z,62.11
2022-10-18T05:56:03.346Z,62.03
2022-10-18T05:58:29.713Z,62.39
2022-10-18T06:00:59.832Z,62.36
2022-10-18T06:03:27.596Z,61.96
2022-10-18T06:05:59.805Z,62.46
2022-10-18T06:08:26.156Z,62.15
2022-10-18T06:10:52.524Z,62.65
2022-10-18T06:13:18.837Z,62.55
2022-10-18T06:15:45.352Z,62.69
2022-10-18T06:18:11.649Z,62.52
2022-10-18T06:20:38.004Z,62.52
2022-10-18T06:23:04.325Z,61.78
2022-10-18T06:25:30.651Z,62.27
2022-10-18T06:27:56.959Z,62.57
2022-10-18T06:30:23.274Z,62.60
2022-10-18T06:32:49.586Z,62.64
2022-10-18T06:35:16.143Z,62.95
2022-10-18T06:40:13.932Z,62.95
2022-10-18T06:42:40.400Z,62.88
2022-10-18T06:45:07.317Z,63.04
2022-10-18T06:47:33.624Z,63.42
2022-10-18T06:49:59.953Z,63.30
2022-10-18T06:52:26.369Z,63.50
2022-10-18T06:54:52.823Z,63.17
2022-10-18T06:57:20.418Z,63.64
2022-10-18T06:59:46.812Z,63.31
2022-10-18T07:02:19.463Z,63.55
2022-10-18T07:04:45.794Z,63.82
2022-10-18T07:07:12.088Z,63.49
2022-10-18T07:09:38.530Z,63.87
2022-10-18T07:12:05.137Z,63.93
2022-10-18T07:14:31.441Z,63.72
2022-10-18T07:17:00.920Z,63.72
2022-10-18T07:19:27.662Z,64.00
2022-10-18T07:21:54.080Z,63.87
2022-10-18T07:24:20.551Z,63.88
2022-10-18T07:26:46.944Z,64.25
2022-10-18T07:29:13.314Z,64.19
2022-10-18T07:31:40.737Z,63.84
2022-10-18T07:34:10.555Z,63.94
2022-10-18T07:36:36.967Z,63.90
2022-10-18T07:39:03.971Z,64.26
2022-10-18T07:41:33.088Z,64.03
2022-10-18T07:44:00.443Z,64.20
2022-10-18T07:46:26.928Z,64.51
2022-10-18T07:48:53.280Z,64.22
2022-10-18T07:51:22.265Z,64.11
2022-10-18T07:53:48.604Z,64.05
2022-10-18T07:56:20.595Z,64.40
2022-10-18T07:58:51.160Z,64.32
2022-10-18T08:01:18.867Z,64.35
2022-10-18T08:03:45.500Z,64.01
2022-10-18T08:06:13.460Z,64.50
2022-10-18T08:08:41.007Z,64.37
2022-10-18T08:11:10.270Z,64.16
2022-10-18T08:13:36.811Z,63.96
2022-10-18T08:16:09.135Z,64.14
2022-10-18T08:18:36.521Z,64.18
2022-10-18T08:21:05.803Z,64.45
2022-10-18T08:23:32.377Z,64.26
2022-10-18T08:26:03.636Z,64.30
2022-10-18T08:28:30.111Z,64.34
2022-10-18T08:30:56.544Z,64.73
2022-10-18T08:33:23.457Z,64.78
2022-10-18T08:36:00.893Z,64.60
2022-10-18T08:38:30.152Z,64.98
2022-10-18T08:40:56.771Z,64.73
2022-10-18T08:43:59.489Z,65.06
2022-10-18T08:46:28.291Z,65.03
2022-10-18T08:48:56.686Z,64.94
2022-10-18T08:51:44.779Z,64.60
2022-10-18T08:54:14.246Z,64.56
2022-10-18T08:56:47.575Z,64.34
2022-10-18T08:59:13.990Z,64.73
2022-10-18T09:02:21.536Z,64.71
2022-10-18T09:05:08.984Z,65.00
2022-10-18T09:07:44.213Z,64.50
2022-10-18T09:10:29.894Z,64.54
2022-10-18T09:13:34.750Z,64.52
2022-10-18T09:16:07.672Z,64.74
2022-10-18T09:18:43.179Z,64.61
2022-10-18T09:21:28.448Z,64.85
2022-10-18T09:24:10.245Z,65.03
2022-10-18T09:26:52.645Z,64.92
2022-10-18T09:29:37.929Z,65.00
2022-10-18T09:32:22.499Z,65.16
2022-10-18T09:35:21.068Z,64.99
2022-10-18T09:37:49.364Z,64.94
2022-10-18T09:40:21.334Z,65.27
2022-10-18T09:42:55.637Z,65.14
2022-10-18T09:45:27.639Z,65.35
2022-10-18T09:48:08.430Z,65.31
2022-10-18T09:50:53.088Z,65.07
2022-10-18T09:54:04.399Z,65.29
2022-10-18T09:56:41.928Z,65.15
2022-10-18T09:59:29.531Z,65.29
2022-10-18T10:01:56.021Z,65.30
2022-10-18T10:04:22.448Z,65.18
2022-10-18T10:06:53.977Z,65.29
2022-10-18T10:09:35.994Z,65.13
2022-10-18T10:12:02.384Z,65.02
2022-10-18T10:14:30.632Z,65.09
2022-10-18T10:16:59.867Z,65.18
2022-10-18T10:19:33.203Z,64.97
2022-10-18T10:22:26.245Z,64.73
2022-10-18T10:24:54.607Z,65.08
2022-10-18T10:27:43.739Z,65.13
2022-10-18T10:30:31.648Z,65.07
2022-10-18T10:32:58.024Z,65.03
2022-10-18T10:35:54.452Z,64.04
2022-10-18T10:38:25.693Z,64.59
2022-10-18T10:40:52.279Z,64.81
2022-10-18T10:43:36.639Z,64.60
2022-10-18T10:46:13.802Z,64.88
2022-10-18T10:49:04.170Z,64.85
2022-10-18T10:51:40.098Z,64.73
2022-10-18T10:54:13.932Z,64.70
2022-10-18T10:57:11.158Z,64.90
2022-10-18T10:59:50.065Z,64.89
2022-10-18T11:02:20.532Z,64.91
2022-10-18T11:04:49.947Z,64.92
2022-10-18T11:07:27.369Z,64.69
2022-10-18T11:10:01.718Z,64.87
2022-10-18T11:12:42.755Z,65.36
2022-10-18T11:15:23.528Z,65.35
2022-10-18T11:18:23.812Z,65.22
2022-10-18T11:20:59.906Z,65.06
2022-10-18T11:23:31.550Z,65.32
2022-10-18T11:26:12.784Z,64.98
2022-10-18T11:28:52.565Z,65.52
2022-10-18T11:31:29.286Z,65.19
2022-10-18T11:34:21.281Z,65.42
2022-10-18T11:37:27.315Z,65.18
2022-10-18T11:40:10.975Z,65.51
2022-10-18T11:42:54.228Z,65.77
2022-10-18T11:45:38.273Z,65.62
2022-10-18T11:48:42.888Z,65.29
2022-10-18T11:51:29.632Z,65.17
2022-10-18T11:54:05.043Z,65.45
2022-10-18T11:56:45.366Z,64.70
2022-10-18T11:59:29.847Z,64.98
2022-10-18T12:02:44.565Z,64.79
2022-10-18T12:05:23.220Z,64.86
2022-10-18T12:08:02.275Z,64.75
2022-10-18T12:10:52.704Z,65.01
2022-10-18T12:13:27.880Z,64.98
2022-10-18T12:15:55.475Z,64.91
2022-10-18T12:18:25.860Z,65.22
2022-10-18T12:20:55.882Z,64.74
2022-10-18T12:23:47.093Z,64.78
2022-10-18T12:26:13.858Z,65.07
2022-10-18T12:29:17.128Z,64.77
2022-10-18T12:31:48.140Z,64.76
2022-10-18T12:34:23.619Z,64.79
2022-10-18T12:36:55.677Z,65.01
2022-10-18T12:39:38.860Z,64.73
2022-10-18T12:42:23.100Z,64.70
2022-10-18T12:44:59.897Z,64.59
2022-10-18T12:47:27.180Z,64.55
2022-10-18T12:49:58.609Z,64.70
2022-10-18T12:52:28.765Z,64.67
2022-10-18T12:55:03.577Z,64.51
2022-10-18T12:57:51.750Z,64.57
2022-10-18T13:00:30.483Z,64.26
2022-10-18T13:03:08.951Z,64.45
2022-10-18T13:05:56.025Z,64.50
2022-10-18T13:08:34.723Z,64.62
2022-10-18T13:11:10.090Z,64.50
2022-10-18T13:16:47.012Z,64.38
2022-10-18T13:19:20.457Z,64.57
2022-10-18T13:22:08.456Z,64.38
2022-10-18T13:24:46.992Z,64.16
2022-10-18T13:27:42.532Z,64.25
2022-10-18T13:30:24.396Z,64.33
2022-10-18T13:32:59.096Z,63.97
2022-10-18T13:35:49.116Z,63.79
2022-10-18T13:38:27.924Z,63.64
2022-10-18T13:41:21.597Z,63.80
2022-10-18T13:43:57.629Z,63.34
2022-10-18T13:46:32.946Z,63.73
2022-10-18T13:49:33.318Z,63.87
2022-10-18T13:52:05.784Z,63.68
2022-10-18T13:54:46.807Z,63.80
2022-10-18T13:57:29.489Z,63.90
2022-10-18T14:00:13.555Z,64.23
2022-10-18T14:02:56.962Z,64.19
2022-10-18T14:05:43.951Z,64.32
2022-10-18T14:08:15.540Z,64.30
2022-10-18T14:11:02.017Z,64.65
2022-10-18T14:13:38.377Z,64.28
2022-10-18T14:16:40.165Z,64.57
2022-10-18T14:19:36.697Z,64.64
2022-10-18T14:22:23.608Z,64.65
2022-10-18T14:24:54.152Z,64.44
2022-10-18T14:27:23.725Z,64.24
2022-10-18T14:30:06.309Z,63.98
2022-10-18T14:32:32.995Z,63.91
2022-10-18T14:35:31.733Z,63.60
2022-10-18T14:37:51.594Z,63.53
2022-10-18T14:40:39.938Z,63.18
2022-10-18T14:43:08.999Z,63.30
2022-10-18T14:45:35.318Z,62.96
2022-10-18T14:48:12.822Z,63.12
2022-10-18T14:50:39.178Z,63.02
2022-10-18T14:53:16.225Z,62.86
2022-10-18T14:55:43.007Z,62.15
2022-10-18T14:58:16.021Z,61.37
2022-10-18T15:00:45.117Z,60.58
2022-10-18T15:03:16.848Z,59.60
2022-10-18T15:06:00.762Z,59.30
2022-10-18T15:08:35.229Z,60.45
2022-10-18T15:11:01.800Z,61.52
2022-10-18T15:13:29.599Z,62.17
2022-10-18T15:15:56.438Z,62.42
2022-10-18T15:18:25.502Z,63.06
2022-10-18T15:21:23.926Z,62.86
2022-10-18T15:23:51.505Z,63.06
2022-10-18T15:26:29.868Z,63.27
2022-10-18T15:29:01.452Z,63.64
2022-10-18T15:31:37.259Z,63.65
2022-10-18T15:34:11.739Z,63.39
2022-10-18T15:36:38.458Z,63.63
2022-10-18T15:39:15.720Z,63.86
2022-10-18T15:41:50.971Z,63.59
2022-10-18T15:44:26.418Z,63.64
2022-10-18T15:46:56.341Z,64.02
2022-10-18T15:49:44.324Z,63.64
2022-10-18T15:52:37.525Z,63.86
2022-10-18T15:55:28.940Z,63.66
2022-10-18T15:58:23.170Z,63.50
2022-10-18T16:00:51.606Z,63.45
2022-10-18T16:03:19.384Z,62.22
2022-10-18T16:05:46.100Z,61.79
2022-10-18T16:08:23.643Z,62.35
2022-10-18T16:10:50.592Z,62.74
2022-10-18T16:13:17.654Z,63.82
2022-10-18T16:15:44.120Z,63.70
2022-10-18T16:18:15.912Z,64.05
2022-10-18T16:20:42.972Z,63.68
2022-10-18T16:23:20.863Z,64.08
2022-10-18T16:25:47.635Z,64.11
2022-10-18T16:28:16.013Z,63.82
2022-10-18T16:30:45.293Z,63.77
2022-10-18T16:33:11.869Z,63.77
2022-10-18T16:35:38.256Z,63.92
2022-10-18T16:38:04.848Z,64.05
2022-10-18T16:40:31.165Z,63.59
2022-10-18T16:42:57.476Z,63.41
2022-10-18T16:45:23.811Z,63.54
2022-10-18T16:47:50.179Z,63.34
2022-10-18T16:50:19.358Z,63.28
2022-10-18T16:52:45.662Z,63.79
2022-10-18T16:55:24.868Z,63.43
2022-10-18T16:57:51.580Z,63.75
2022-10-18T17:00:21.780Z,63.59
2022-10-18T17:02:49.182Z,63.43
2022-10-18T17:05:17.068Z,63.43
2022-10-18T17:07:44.209Z,64.07
2022-10-18T17:10:15.804Z,63.67
2022-10-18T17:12:42.423Z,63.87
2022-10-18T17:15:09.960Z,63.85
2022-10-18T17:17:37.095Z,63.40
2022-10-18T17:20:05.592Z,63.89
2022-10-18T17:22:32.390Z,63.89
2022-10-18T17:24:58.733Z,63.54
2022-10-18T17:27:25.084Z,63.78
2022-10-18T17:29:51.402Z,63.68
2022-10-18T17:32:17.765Z,63.60
2022-10-18T17:34:44.195Z,63.80
2022-10-18T17:37:10.696Z,63.94
2022-10-18T17:39:37.062Z,63.56
2022-10-18T17:42:03.511Z,63.67
2022-10-18T17:44:29.920Z,63.44
2022-10-18T17:46:56.266Z,63.35
2022-10-18T17:49:22.594Z,63.25
2022-10-18T17:51:49.024Z,63.50
2022-10-18T17:54:15.449Z,63.24
2022-10-18T17:56:41.952Z,63.23
2022-10-18T17:59:08.717Z,63.41
2022-10-18T18:01:35.176Z,63.12
2022-10-18T18:04:03.092Z,63.51
2022-10-18T18:06:36.111Z,63.47
2022-10-18T18:09:08.802Z,63.23
2022-10-18T18:11:36.554Z,63.39
2022-10-18T18:14:08.267Z,63.52
2022-10-18T18:16:37.002Z,63.13
2022-10-18T18:19:08.807Z,63.42
2022-10-18T18:21:36.545Z,63.31
2022-10-18T18:24:03.331Z,63.32
2022-10-18T18:26:34.428Z,63.28
2022-10-18T18:29:04.209Z,63.33
2022-10-18T18:31:34.360Z,63.38
2022-10-18T18:34:05.031Z,63.15
2022-10-18T18:36:32.446Z,62.92
2022-10-18T18:38:58.927Z,63.05
2022-10-18T18:41:26.573Z,63.10
2022-10-18T18:44:04.977Z,63.04
2022-10-18T18:46:36.507Z,62.97
2022-10-18T18:49:03.317Z,63.28
2022-10-18T18:51:30.033Z,62.97
2022-10-18T18:53:56.353Z,63.03
2022-10-18T18:56:24.858Z,63.04
2022-10-18T18:58:52.319Z,63.25
2022-10-18T19:01:27.749Z,63.23
2022-10-18T19:03:56.067Z,63.42
2022-10-18T19:06:36.559Z,63.13
2022-10-18T19:09:05.573Z,63.20
2022-10-18T19:11:35.405Z,63.09
2022-10-18T19:14:02.748Z,63.06
2022-10-18T19:16:31.443Z,62.63
2022-10-18T19:18:59.849Z,62.87
2022-10-18T19:21:29.360Z,62.43
2022-10-18T19:23:56.597Z,62.42
2022-10-18T19:26:24.610Z,63.17
2022-10-18T19:28:50.965Z,62.93
2022-10-18T19:31:17.318Z,62.67
2022-10-18T19:33:48.744Z,62.54
2022-10-18T19:36:22.100Z,62.86
2022-10-18T19:38:48.509Z,62.96
2022-10-18T19:41:14.884Z,62.79
2022-10-18T19:43:41.247Z,62.49
2022-10-18T19:46:07.598Z,62.63
2022-10-18T19:48:33.908Z,62.66
2022-10-18T19:51:05.889Z,62.21
2022-10-18T19:53:34.135Z,62.29
2022-10-18T19:56:02.181Z,62.20
2022-10-18T19:58:28.657Z,62.19
2022-10-18T20:00:55.917Z,62.21
2022-10-18T20:03:24.211Z,61.57
2022-10-18T20:05:55.768Z,61.96
2022-10-18T20:08:22.920Z,61.40
2022-10-18T20:10:49.341Z,61.30
2022-10-18T20:13:15.737Z,61.54
2022-10-18T20:15:42.040Z,61.12
2022-10-18T20:18:08.419Z,61.09
2022-10-18T20:20:36.758Z,61.63
2022-10-18T20:23:04.023Z,61.09
2022-10-18T20:25:30.349Z,60.42
2022-10-18T20:27:56.708Z,60.59
2022-10-18T20:30:23.025Z,60.90
2022-10-18T20:32:51.756Z,61.00
2022-10-18T20:35:18.377Z,61.36
2022-10-18T20:37:47.479Z,60.95
2022-10-18T20:40:14.424Z,61.32
2022-10-18T20:42:41.216Z,61.11
2022-10-18T20:45:08.300Z,60.92
2022-10-18T20:47:35.525Z,60.94
2022-10-18T20:50:03.057Z,60.50
2022-10-18T20:52:29.390Z,60.61
2022-10-18T20:54:55.701Z,60.79
2022-10-18T20:57:22.107Z,60.72
2022-10-18T20:59:48.731Z,60.20
2022-10-18T21:02:15.180Z,60.53
2022-10-18T21:04:42.389Z,60.46
2022-10-18T21:07:08.855Z,60.00
2022-10-18T21:09:35.156Z,60.24
2022-10-18T21:12:01.538Z,59.64
2022-10-18T21:14:27.956Z,59.91
2022-10-18T21:16:54.303Z,59.35
2022-10-18T21:19:26.077Z,59.76
2022-10-18T21:21:55.095Z,59.35
2022-10-18T21:24:23.317Z,59.22
2022-10-18T21:26:49.912Z,59.42
2022-10-18T21:29:21.632Z,59.11
2022-10-18T21:31:48.729Z,59.10
2022-10-18T21:34:17.291Z,58.83
2022-10-18T21:36:45.156Z,58.70
2022-10-18T21:39:18.042Z,58.92
2022-10-18T21:41:45.292Z,58.76
2022-10-18T21:44:12.457Z,58.34
2022-10-18T21:46:39.940Z,58.46
2022-10-18T21:49:07.224Z,58.30
2022-10-18T21:51:33.514Z,58.60
2022-10-18T21:53:59.907Z,58.21
2022-10-18T21:56:31.763Z,58.38
2022-10-18T21:58:58.475Z,58.42
2022-10-18T22:01:27.878Z,58.16
2022-10-18T22:03:56.470Z,57.91
2022-10-18T22:06:23.454Z,57.98
2022-10-18T22:08:53.655Z,58.16
2022-10-18T22:11:23.400Z,58.09
2022-10-18T22:13:50.220Z,57.79
2022-10-18T22:16:17.217Z,57.95
2022-10-18T22:18:45.398Z,58.18
2022-10-18T22:21:13.793Z,57.60
2022-10-18T22:23:43.479Z,57.55
2022-10-18T22:26:13.126Z,57.53
2022-10-18T22:28:40.782Z,57.55
2022-10-18T22:31:22.837Z,57.59
2022-10-18T22:33:56.299Z,57.66
2022-10-18T22:36:23.832Z,57.40
2022-10-18T22:38:50.492Z,57.25
2022-10-18T22:41:17.680Z,57.45
2022-10-18T22:43:44.449Z,57.35
2022-10-18T22:46:12.792Z,57.41
2022-10-18T22:48:39.474Z,56.95
2022-10-18T22:51:06.826Z,57.29
2022-10-18T22:53:34.139Z,57.42
2022-10-18T22:56:00.471Z,57.18
2022-10-18T22:58:26.907Z,57.34
2022-10-18T23:01:10.057Z,57.14
2022-10-18T23:03:37.175Z,56.85
2022-10-18T23:06:04.665Z,57.17
2022-10-18T23:08:31.995Z,56.88
2022-10-18T23:10:59.700Z,57.15
2022-10-18T23:13:27.328Z,56.74
2022-10-18T23:16:04.201Z,57.16
2022-10-18T23:18:32.872Z,56.72
2022-10-18T23:21:08.168Z,56.97
2022-10-18T23:23:36.095Z,56.75
2022-10-18T23:26:04.459Z,56.99
2022-10-18T23:28:34.741Z,56.63
2022-10-18T23:31:09.392Z,56.58
2022-10-18T23:33:36.019Z,56.38
2022-10-18T23:36:02.836Z,56.51
2022-10-18T23:38:30.444Z,56.54
2022-10-18T23:40:57.240Z,56.37
2022-10-18T23:43:23.764Z,56.38
2022-10-18T23:45:50.133Z,56.46
2022-10-18T23:48:16.448Z,56.49
2022-10-18T23:50:43.553Z,56.60
2022-10-18T23:53:10.384Z,56.32
2022-10-18T23:55:36.797Z,56.19
2022-10-18T23:58:03.204Z,56.03
